sensor_id;sensor_type;location;lat;lon;timestamp;pressure;altitude;pressure_sealevel;temperature;humidity
63493;BME280;49638;47.526;10.028;2023-06-05T00:01:40;91686.94;;;13.29;66.21
63493;BME280;49638;47.526;10.028;2023-06-05T00:04:41;91680.25;;;13.21;66.41
63493;BME280;49638;47.526;10.028;2023-06-05T00:07:41;91685.56;;;13.21;66.64
63493;BME280;49638;47.526;10.028;2023-06-05T00:10:41;91683.41;;;13.18;66.63
63493;BME280;49638;47.526;10.028;2023-06-05T00:13:41;91687.63;;;13.09;66.90
63493;BME280;49638;47.526;10.028;2023-06-05T00:16:42;91685.97;;;12.98;67.16
63493;BME280;49638;47.526;10.028;2023-06-05T00:19:42;91690.41;;;12.82;67.48
63493;BME280;49638;47.526;10.028;2023-06-05T00:22:42;91686.13;;;12.76;67.76
63493;BME280;49638;47.526;10.028;2023-06-05T00:25:44;91676.25;;;12.66;67.86
63493;BME280;49638;47.526;10.028;2023-06-05T00:28:46;91689.00;;;12.69;68.16
63493;BME280;49638;47.526;10.028;2023-06-05T00:31:46;91688.97;;;12.64;68.23
63493;BME280;49638;47.526;10.028;2023-06-05T00:34:47;91684.13;;;12.56;68.44
63493;BME280;49638;47.526;10.028;2023-06-05T00:37:50;91690.72;;;12.48;68.73
63493;BME280;49638;47.526;10.028;2023-06-05T00:40:50;91683.25;;;12.40;68.95
63493;BME280;49638;47.526;10.028;2023-06-05T00:43:51;91679.19;;;12.32;69.10
63493;BME280;49638;47.526;10.028;2023-06-05T00:46:52;91679.19;;;12.32;69.26
63493;BME280;49638;47.526;10.028;2023-06-05T00:49:52;91681.81;;;12.27;69.43
63493;BME280;49638;47.526;10.028;2023-06-05T00:52:53;91679.19;;;12.32;69.43
63493;BME280;49638;47.526;10.028;2023-06-05T00:55:54;91674.47;;;12.35;69.33
63493;BME280;49638;47.526;10.028;2023-06-05T00:58:54;91669.34;;;12.23;69.51
63493;BME280;49638;47.526;10.028;2023-06-05T01:01:55;91682.63;;;12.28;69.71
63493;BME280;49638;47.526;10.028;2023-06-05T01:09:04;91676.31;;;12.34;71.87
63493;BME280;49638;47.526;10.028;2023-06-05T01:12:14;91665.09;;;12.22;71.00
63493;BME280;49638;47.526;10.028;2023-06-05T01:15:17;91667.00;;;12.31;69.64
63493;BME280;49638;47.526;10.028;2023-06-05T01:18:18;91672.06;;;12.33;69.72
63493;BME280;49638;47.526;10.028;2023-06-05T01:21:19;91668.53;;;12.22;69.83
63493;BME280;49638;47.526;10.028;2023-06-05T01:24:19;91669.78;;;12.10;70.16
63493;BME280;49638;47.526;10.028;2023-06-05T01:30:42;91663.06;;;12.02;70.83
63493;BME280;49638;47.526;10.028;2023-06-05T01:33:51;91667.53;;;11.96;71.29
63493;BME280;49638;47.526;10.028;2023-06-05T01:36:57;91665.91;;;11.90;70.95
63493;BME280;49638;47.526;10.028;2023-06-05T01:39:57;91666.69;;;11.91;70.85
63493;BME280;49638;47.526;10.028;2023-06-05T01:42:59;91670.69;;;11.93;70.94
63493;BME280;49638;47.526;10.028;2023-06-05T01:46:00;91663.28;;;11.95;71.03
63493;BME280;49638;47.526;10.028;2023-06-05T01:49:01;91669.34;;;11.91;71.24
63493;BME280;49638;47.526;10.028;2023-06-05T01:52:02;91666.41;;;11.87;71.24
63493;BME280;49638;47.526;10.028;2023-06-05T01:55:03;91668.56;;;11.95;71.16
63493;BME280;49638;47.526;10.028;2023-06-05T01:58:03;91666.75;;;11.96;71.56
63493;BME280;49638;47.526;10.028;2023-06-05T02:01:04;91667.28;;;11.98;71.42
63493;BME280;49638;47.526;10.028;2023-06-05T02:04:05;91656.59;;;11.88;71.63
63493;BME280;49638;47.526;10.028;2023-06-05T02:07:05;91669.19;;;12.02;71.24
63493;BME280;49638;47.526;10.028;2023-06-05T02:10:08;91667.06;;;12.04;71.20
63493;BME280;49638;47.526;10.028;2023-06-05T02:13:08;91668.94;;;12.09;71.27
63493;BME280;49638;47.526;10.028;2023-06-05T02:16:10;91658.28;;;11.99;71.50
63493;BME280;49638;47.526;10.028;2023-06-05T02:19:11;91663.00;;;11.92;71.82
63493;BME280;49638;47.526;10.028;2023-06-05T02:22:12;91662.41;;;11.84;72.00
63493;BME280;49638;47.526;10.028;2023-06-05T02:25:12;91653.91;;;11.82;72.24
63493;BME280;49638;47.526;10.028;2023-06-05T02:28:12;91653.94;;;11.88;72.18
63493;BME280;49638;47.526;10.028;2023-06-05T02:31:13;91660.78;;;11.83;72.27
63493;BME280;49638;47.526;10.028;2023-06-05T02:34:16;91656.53;;;11.82;72.24
63493;BME280;49638;47.526;10.028;2023-06-05T02:37:19;91650.59;;;11.70;72.40
63493;BME280;49638;47.526;10.028;2023-06-05T02:40:22;91654.31;;;11.69;72.56
63493;BME280;49638;47.526;10.028;2023-06-05T02:43:23;91654.50;;;11.63;72.88
63493;BME280;49638;47.526;10.028;2023-06-05T02:46:23;91659.00;;;11.62;72.98
63493;BME280;49638;47.526;10.028;2023-06-05T02:49:25;91657.59;;;11.54;73.09
63493;BME280;49638;47.526;10.028;2023-06-05T02:52:25;91647.97;;;11.43;73.33
63493;BME280;49638;47.526;10.028;2023-06-05T02:55:25;91649.53;;;11.44;73.49
63493;BME280;49638;47.526;10.028;2023-06-05T02:58:29;91655.28;;;11.36;78.26
63493;BME280;49638;47.526;10.028;2023-06-05T03:01:29;91652.91;;;11.34;73.42
63493;BME280;49638;47.526;10.028;2023-06-05T03:04:34;91639.34;;;11.31;73.69
63493;BME280;49638;47.526;10.028;2023-06-05T03:07:34;91661.44;;;11.42;73.59
63493;BME280;49638;47.526;10.028;2023-06-05T03:10:35;91653.16;;;11.33;73.87
63493;BME280;49638;47.526;10.028;2023-06-05T03:13:35;91652.81;;;11.24;74.14
63493;BME280;49638;47.526;10.028;2023-06-05T03:16:36;91650.34;;;11.18;74.36
63493;BME280;49638;47.526;10.028;2023-06-05T03:19:43;91636.19;;;11.07;74.58
63493;BME280;49638;47.526;10.028;2023-06-05T03:22:43;91653.50;;;11.15;74.68
63493;BME280;49638;47.526;10.028;2023-06-05T03:25:43;91655.38;;;11.19;74.75
63493;BME280;49638;47.526;10.028;2023-06-05T03:28:44;91643.75;;;11.20;74.77
63493;BME280;49638;47.526;10.028;2023-06-05T03:31:44;91657.16;;;11.35;74.85
63493;BME280;49638;47.526;10.028;2023-06-05T03:34:44;91647.81;;;11.28;74.86
63493;BME280;49638;47.526;10.028;2023-06-05T03:37:48;91652.28;;;11.27;74.97
63493;BME280;49638;47.526;10.028;2023-06-05T03:40:48;91658.75;;;11.36;75.17
63493;BME280;49638;47.526;10.028;2023-06-05T03:43:49;91652.66;;;11.36;75.27
63493;BME280;49638;47.526;10.028;2023-06-05T03:46:49;91656.88;;;11.37;75.49
63493;BME280;49638;47.526;10.028;2023-06-05T03:49:49;91658.75;;;11.36;75.58
63493;BME280;49638;47.526;10.028;2023-06-05T03:52:50;91655.03;;;11.37;75.54
63493;BME280;49638;47.526;10.028;2023-06-05T03:55:53;91660.41;;;11.43;75.63
63493;BME280;49638;47.526;10.028;2023-06-05T03:58:55;91659.91;;;11.46;75.60
63493;BME280;49638;47.526;10.028;2023-06-05T04:01:56;91662.66;;;11.56;75.59
63493;BME280;49638;47.526;10.028;2023-06-05T04:04:56;91646.19;;;11.54;75.78
63493;BME280;49638;47.526;10.028;2023-06-05T04:07:57;91663.47;;;11.61;75.98
63493;BME280;49638;47.526;10.028;2023-06-05T04:10:57;91664.84;;;11.64;76.22
63493;BME280;49638;47.526;10.028;2023-06-05T04:13:58;91660.19;;;11.76;76.05
63493;BME280;49638;47.526;10.028;2023-06-05T04:16:58;91663.50;;;11.89;76.20
63493;BME280;49638;47.526;10.028;2023-06-05T04:19:59;91674.09;;;12.21;75.57
63493;BME280;49638;47.526;10.028;2023-06-05T04:23:00;91666.34;;;12.51;75.27
63493;BME280;49638;47.526;10.028;2023-06-05T04:26:00;91664.16;;;12.81;75.21
63493;BME280;49638;47.526;10.028;2023-06-05T04:29:01;91665.72;;;13.29;74.31
63493;BME280;49638;47.526;10.028;2023-06-05T04:32:02;91655.47;;;13.84;72.97
63493;BME280;49638;47.526;10.028;2023-06-05T04:35:06;91660.00;;;14.29;71.49
63493;BME280;49638;47.526;10.028;2023-06-05T04:38:08;91659.19;;;14.70;70.75
63493;BME280;49638;47.526;10.028;2023-06-05T04:41:08;91662.56;;;15.01;70.00
63493;BME280;49638;47.526;10.028;2023-06-05T04:44:11;91663.84;;;15.24;69.98
63493;BME280;49638;47.526;10.028;2023-06-05T04:47:12;91660.00;;;15.50;69.40
63493;BME280;49638;47.526;10.028;2023-06-05T04:50:26;91657.22;;;15.66;68.60
63493;BME280;49638;47.526;10.028;2023-06-05T04:53:26;91663.59;;;15.80;68.83
63493;BME280;49638;47.526;10.028;2023-06-05T04:56:32;91668.88;;;15.90;68.90
63493;BME280;49638;47.526;10.028;2023-06-05T04:59:33;91672.25;;;16.01;68.47
63493;BME280;49638;47.526;10.028;2023-06-05T05:02:33;91654.63;;;16.05;67.83
63493;BME280;49638;47.526;10.028;2023-06-05T05:05:33;91661.69;;;16.25;67.25
63493;BME280;49638;47.526;10.028;2023-06-05T05:08:36;91658.88;;;16.40;67.39
63493;BME280;49638;47.526;10.028;2023-06-05T05:11:36;91664.34;;;16.59;66.89
63493;BME280;49638;47.526;10.028;2023-06-05T05:14:36;91664.75;;;16.76;66.89
63493;BME280;49638;47.526;10.028;2023-06-05T05:17:36;91662.66;;;16.97;66.17
63493;BME280;49638;47.526;10.028;2023-06-05T05:20:37;91657.28;;;17.02;65.66
63493;BME280;49638;47.526;10.028;2023-06-05T05:23:38;91645.25;;;17.05;65.72
63493;BME280;49638;47.526;10.028;2023-06-05T05:26:39;91654.06;;;17.30;65.49
63493;BME280;49638;47.526;10.028;2023-06-05T05:29:42;91661.81;;;17.50;64.95
63493;BME280;49638;47.526;10.028;2023-06-05T05:32:42;91661.47;;;17.76;64.63
63493;BME280;49638;47.526;10.028;2023-06-05T05:35:42;91657.91;;;17.85;64.30
63493;BME280;49638;47.526;10.028;2023-06-05T05:38:43;91671.78;;;18.06;64.45
63493;BME280;49638;47.526;10.028;2023-06-05T05:41:43;91667.31;;;18.02;63.77
63493;BME280;49638;47.526;10.028;2023-06-05T05:44:43;91663.47;;;18.08;63.26
63493;BME280;49638;47.526;10.028;2023-06-05T05:47:44;91661.09;;;18.25;62.47
63493;BME280;49638;47.526;10.028;2023-06-05T05:50:45;91663.09;;;18.33;61.94
63493;BME280;49638;47.526;10.028;2023-06-05T05:53:45;91665.13;;;18.41;61.86
63493;BME280;49638;47.526;10.028;2023-06-05T05:56:45;91666.34;;;18.49;62.15
63493;BME280;49638;47.526;10.028;2023-06-05T05:59:47;91671.94;;;18.66;61.92
63493;BME280;49638;47.526;10.028;2023-06-05T06:02:47;91666.44;;;18.77;61.70
63493;BME280;49638;47.526;10.028;2023-06-05T06:05:47;91664.34;;;18.74;61.19
63493;BME280;49638;47.526;10.028;2023-06-05T06:08:48;91650.53;;;18.66;60.65
63493;BME280;49638;47.526;10.028;2023-06-05T06:11:48;91666.19;;;18.92;61.00
63493;BME280;49638;47.526;10.028;2023-06-05T06:14:49;91665.00;;;18.98;60.61
63493;BME280;49638;47.526;10.028;2023-06-05T06:17:49;91662.63;;;19.10;60.23
63493;BME280;49638;47.526;10.028;2023-06-05T06:20:50;91665.84;;;19.26;59.75
63493;BME280;49638;47.526;10.028;2023-06-05T06:23:50;91665.72;;;19.31;59.33
63493;BME280;49638;47.526;10.028;2023-06-05T06:26:50;91660.69;;;19.30;59.47
63493;BME280;49638;47.526;10.028;2023-06-05T06:29:52;91661.75;;;19.56;59.44
63493;BME280;49638;47.526;10.028;2023-06-05T06:32:53;91663.25;;;19.76;59.02
63493;BME280;49638;47.526;10.028;2023-06-05T06:35:57;91666.94;;;19.80;58.51
63493;BME280;49638;47.526;10.028;2023-06-05T06:39:00;91664.34;;;19.75;57.99
63493;BME280;49638;47.526;10.028;2023-06-05T06:42:01;91662.06;;;19.55;58.39
63493;BME280;49638;47.526;10.028;2023-06-05T06:45:01;91669.69;;;19.34;58.37
63493;BME280;49638;47.526;10.028;2023-06-05T06:48:02;91657.25;;;18.97;58.53
63493;BME280;49638;47.526;10.028;2023-06-05T06:51:02;91673.72;;;18.90;59.02
63493;BME280;49638;47.526;10.028;2023-06-05T06:54:03;91664.47;;;18.82;59.54
63493;BME280;49638;47.526;10.028;2023-06-05T06:57:04;91679.34;;;18.88;59.43
63493;BME280;49638;47.526;10.028;2023-06-05T07:00:05;91668.47;;;18.99;58.70
63493;BME280;49638;47.526;10.028;2023-06-05T07:03:09;91680.97;;;19.03;58.48
63493;BME280;49638;47.526;10.028;2023-06-05T07:06:10;91676.91;;;18.92;58.95
63493;BME280;49638;47.526;10.028;2023-06-05T07:09:12;91687.72;;;19.01;59.02
63493;BME280;49638;47.526;10.028;2023-06-05T07:12:14;91685.47;;;19.22;58.89
63493;BME280;49638;47.526;10.028;2023-06-05T07:15:15;91678.44;;;19.40;58.34
63493;BME280;49638;47.526;10.028;2023-06-05T07:18:17;91678.94;;;19.42;58.08
63493;BME280;49638;47.526;10.028;2023-06-05T07:21:17;91671.59;;;19.33;58.35
63493;BME280;49638;47.526;10.028;2023-06-05T07:24:17;91676.94;;;19.47;58.22
63493;BME280;49638;47.526;10.028;2023-06-05T07:27:18;91672.88;;;19.50;58.12
63493;BME280;49638;47.526;10.028;2023-06-05T07:30:20;91671.00;;;19.36;58.04
63493;BME280;49638;47.526;10.028;2023-06-05T07:33:20;91676.03;;;19.24;58.00
63493;BME280;49638;47.526;10.028;2023-06-05T07:36:21;91666.44;;;19.23;57.83
63493;BME280;49638;47.526;10.028;2023-06-05T07:39:23;91671.66;;;19.28;57.39
63493;BME280;49638;47.526;10.028;2023-06-05T07:42:23;91673.06;;;19.26;57.74
63493;BME280;49638;47.526;10.028;2023-06-05T07:45:23;91668.31;;;19.36;58.44
63493;BME280;49638;47.526;10.028;2023-06-05T07:48:24;91672.88;;;19.50;58.50
63493;BME280;49638;47.526;10.028;2023-06-05T07:51:24;91669.41;;;19.63;58.82
63493;BME280;49638;47.526;10.028;2023-06-05T07:54:25;91666.63;;;19.68;58.64
63493;BME280;49638;47.526;10.028;2023-06-05T07:57:25;91657.41;;;19.74;58.46
63493;BME280;49638;47.526;10.028;2023-06-05T08:00:27;91667.91;;;19.84;58.27
63493;BME280;49638;47.526;10.028;2023-06-05T08:03:28;91665.25;;;19.84;58.35
63493;BME280;49638;47.526;10.028;2023-06-05T08:06:28;91667.22;;;19.79;58.36
63493;BME280;49638;47.526;10.028;2023-06-05T08:09:29;91665.44;;;19.74;58.25
63493;BME280;49638;47.526;10.028;2023-06-05T08:12:30;91671.28;;;19.76;58.37
63493;BME280;49638;47.526;10.028;2023-06-05T08:15:30;91666.03;;;19.71;57.81
63493;BME280;49638;47.526;10.028;2023-06-05T08:18:30;91664.47;;;19.70;57.82
63493;BME280;49638;47.526;10.028;2023-06-05T08:21:31;91658.00;;;19.57;58.09
63493;BME280;49638;47.526;10.028;2023-06-05T08:24:31;91652.53;;;19.49;57.86
63493;BME280;49638;47.526;10.028;2023-06-05T08:27:31;91666.13;;;19.52;57.82
63493;BME280;49638;47.526;10.028;2023-06-05T08:30:32;91665.72;;;19.59;57.94
63493;BME280;49638;47.526;10.028;2023-06-05T08:33:33;91658.78;;;19.44;57.25
63493;BME280;49638;47.526;10.028;2023-06-05T08:36:34;91660.75;;;19.38;57.12
63493;BME280;49638;47.526;10.028;2023-06-05T08:39:35;91657.00;;;19.40;56.57
63493;BME280;49638;47.526;10.028;2023-06-05T08:42:37;91668.72;;;19.44;56.57
63493;BME280;49638;47.526;10.028;2023-06-05T08:45:40;91670.28;;;19.45;56.16
63493;BME280;49638;47.526;10.028;2023-06-05T08:48:45;91669.31;;;19.41;53.19
63493;BME280;49638;47.526;10.028;2023-06-05T08:51:49;91658.06;;;19.38;54.49
63493;BME280;49638;47.526;10.028;2023-06-05T08:54:49;91665.25;;;19.29;54.94
63493;BME280;49638;47.526;10.028;2023-06-05T08:57:51;91649.25;;;19.24;54.39
63493;BME280;49638;47.526;10.028;2023-06-05T09:00:51;91660.09;;;19.33;54.70
63493;BME280;49638;47.526;10.028;2023-06-05T09:03:52;91658.66;;;19.35;54.55
63493;BME280;49638;47.526;10.028;2023-06-05T09:06:52;91649.13;;;19.15;54.91
63493;BME280;49638;47.526;10.028;2023-06-05T09:09:52;91661.53;;;19.11;54.64
63493;BME280;49638;47.526;10.028;2023-06-05T09:13:00;91656.75;;;19.08;53.06
63493;BME280;49638;47.526;10.028;2023-06-05T09:16:01;91658.19;;;19.06;54.97
63493;BME280;49638;47.526;10.028;2023-06-05T09:19:01;91652.13;;;19.14;54.97
63493;BME280;49638;47.526;10.028;2023-06-05T09:22:02;91662.94;;;19.09;55.15
63493;BME280;49638;47.526;10.028;2023-06-05T09:25:03;91656.56;;;19.19;55.44
63493;BME280;49638;47.526;10.028;2023-06-05T09:28:07;91659.56;;;19.31;54.91
63493;BME280;49638;47.526;10.028;2023-06-05T09:31:07;91656.09;;;19.30;55.47
63493;BME280;49638;47.526;10.028;2023-06-05T09:34:08;91657.47;;;19.28;55.46
63493;BME280;49638;47.526;10.028;2023-06-05T09:37:09;91660.75;;;19.25;55.26
63493;BME280;49638;47.526;10.028;2023-06-05T09:40:10;91659.88;;;19.29;54.98
63493;BME280;49638;47.526;10.028;2023-06-05T09:43:20;91656.97;;;19.26;54.02
63493;BME280;49638;47.526;10.028;2023-06-05T09:46:22;91649.84;;;19.21;54.71
63493;BME280;49638;47.526;10.028;2023-06-05T09:49:29;91662.44;;;19.21;53.86
63493;BME280;49638;47.526;10.028;2023-06-05T09:52:30;91652.31;;;19.18;54.68
63493;BME280;49638;47.526;10.028;2023-06-05T09:55:33;91652.03;;;19.19;54.45
63493;BME280;49638;47.526;10.028;2023-06-05T09:58:34;91652.13;;;19.14;54.82
63493;BME280;49638;47.526;10.028;2023-06-05T10:01:36;91641.59;;;19.04;55.00
63493;BME280;49638;47.526;10.028;2023-06-05T10:04:50;91641.47;;;18.95;52.50
63493;BME280;49638;47.526;10.028;2023-06-05T10:07:52;91644.06;;;18.86;54.81
63493;BME280;49638;47.526;10.028;2023-06-05T10:10:56;91656.53;;;18.91;54.71
63493;BME280;49638;47.526;10.028;2023-06-05T10:13:56;91641.38;;;18.86;55.03
63493;BME280;49638;47.526;10.028;2023-06-05T10:17:01;91652.69;;;18.97;54.40
63493;BME280;49638;47.526;10.028;2023-06-05T10:20:03;91632.38;;;18.96;54.15
63493;BME280;49638;47.526;10.028;2023-06-05T10:23:05;91633.25;;;19.05;54.31
63493;BME280;49638;47.526;10.028;2023-06-05T10:26:13;91642.91;;;19.20;54.01
63493;BME280;49638;47.526;10.028;2023-06-05T10:36:25;91634.47;;;19.41;51.04
63493;BME280;49638;47.526;10.028;2023-06-05T10:39:29;91632.88;;;19.40;53.02
63493;BME280;49638;47.526;10.028;2023-06-05T10:42:31;91634.66;;;19.44;53.25
63493;BME280;49638;47.526;10.028;2023-06-05T10:45:31;91630.09;;;19.45;52.97
63493;BME280;49638;47.526;10.028;2023-06-05T10:52:36;91624.84;;;19.67;50.57
63493;BME280;49638;47.526;10.028;2023-06-05T10:55:42;91614.97;;;19.76;52.13
63493;BME280;49638;47.526;10.028;2023-06-05T10:59:12;91625.56;;;19.95;50.84
63493;BME280;49638;47.526;10.028;2023-06-05T11:05:16;91611.97;;;20.14;51.99
63493;BME280;49638;47.526;10.028;2023-06-05T11:08:17;91624.28;;;20.29;51.99
63493;BME280;49638;47.526;10.028;2023-06-05T11:11:20;91629.22;;;20.36;51.45
63493;BME280;49638;47.526;10.028;2023-06-05T11:14:21;91618.84;;;20.43;51.57
63493;BME280;49638;47.526;10.028;2023-06-05T11:17:35;91624.97;;;20.57;49.39
63493;BME280;49638;47.526;10.028;2023-06-05T11:23:36;91626.94;;;20.65;50.79
63493;BME280;49638;47.526;10.028;2023-06-05T11:26:40;91616.72;;;20.76;50.39
63493;BME280;49638;47.526;10.028;2023-06-05T11:29:42;91615.03;;;20.89;51.12
63493;BME280;49638;47.526;10.028;2023-06-05T11:32:44;91609.66;;;20.89;50.91
63493;BME280;49638;47.526;10.028;2023-06-05T11:35:46;91615.03;;;20.89;51.07
63493;BME280;49638;47.526;10.028;2023-06-05T11:38:54;91610.66;;;20.93;49.51
63493;BME280;49638;47.526;10.028;2023-06-05T11:41:56;91608.25;;;20.91;50.52
63493;BME280;49638;47.526;10.028;2023-06-05T11:44:56;91604.84;;;20.99;50.75
63493;BME280;49638;47.526;10.028;2023-06-05T11:48:04;91594.59;;;21.10;49.73
63493;BME280;49638;47.526;10.028;2023-06-05T11:51:04;91597.47;;;21.22;50.70
63493;BME280;49638;47.526;10.028;2023-06-05T11:54:08;91585.84;;;21.36;50.30
63493;BME280;49638;47.526;10.028;2023-06-05T11:57:14;91588.69;;;21.31;49.26
63493;BME280;49638;47.526;10.028;2023-06-05T12:00:23;91583.50;;;21.34;49.55
63493;BME280;49638;47.526;10.028;2023-06-05T12:03:24;91580.59;;;21.31;49.66
63493;BME280;49638;47.526;10.028;2023-06-05T12:06:24;91588.53;;;21.36;49.15
63493;BME280;49638;47.526;10.028;2023-06-05T12:09:25;91590.78;;;21.42;48.64
63493;BME280;49638;47.526;10.028;2023-06-05T12:12:25;91592.38;;;21.43;48.74
63493;BME280;49638;47.526;10.028;2023-06-05T12:15:26;91575.28;;;21.39;49.04
63493;BME280;49638;47.526;10.028;2023-06-05T12:18:33;91587.22;;;21.24;49.00
63493;BME280;49638;47.526;10.028;2023-06-05T12:21:34;91592.13;;;20.91;50.50
63493;BME280;49638;47.526;10.028;2023-06-05T12:24:34;91595.69;;;20.69;51.17
63493;BME280;49638;47.526;10.028;2023-06-05T12:27:34;91607.94;;;20.39;51.26
63493;BME280;49638;47.526;10.028;2023-06-05T12:30:41;91597.91;;;20.08;52.79
63493;BME280;49638;47.526;10.028;2023-06-05T12:33:48;91612.34;;;19.99;54.16
63493;BME280;49638;47.526;10.028;2023-06-05T12:36:48;91600.19;;;19.79;52.94
63493;BME280;49638;47.526;10.028;2023-06-05T12:39:48;91604.06;;;19.73;53.79
63493;BME280;49638;47.526;10.028;2023-06-05T12:42:49;91599.72;;;19.77;54.15
63493;BME280;49638;47.526;10.028;2023-06-05T12:45:49;91601.47;;;19.81;55.12
63493;BME280;49638;47.526;10.028;2023-06-05T12:48:50;91593.44;;;19.81;55.69
63493;BME280;49638;47.526;10.028;2023-06-05T12:51:51;91580.50;;;19.83;56.41
63493;BME280;49638;47.526;10.028;2023-06-05T12:54:53;91596.34;;;19.94;56.55
63493;BME280;49638;47.526;10.028;2023-06-05T12:57:53;91584.22;;;19.96;56.45
63493;BME280;49638;47.526;10.028;2023-06-05T13:00:54;91594.63;;;20.12;56.65
63493;BME280;49638;47.526;10.028;2023-06-05T13:03:54;91585.41;;;20.26;56.97
63493;BME280;49638;47.526;10.028;2023-06-05T13:06:54;91581.88;;;20.40;56.91
63493;BME280;49638;47.526;10.028;2023-06-05T13:09:55;91585.31;;;20.54;56.46
63493;BME280;49638;47.526;10.028;2023-06-05T13:12:55;91592.13;;;20.60;55.51
63493;BME280;49638;47.526;10.028;2023-06-05T13:15:55;91575.56;;;20.44;56.05
63493;BME280;49638;47.526;10.028;2023-06-05T13:18:56;91605.94;;;20.45;56.21
63493;BME280;49638;47.526;10.028;2023-06-05T13:21:56;91598.78;;;20.18;56.21
63493;BME280;49638;47.526;10.028;2023-06-05T13:24:56;91606.25;;;19.84;57.11
63493;BME280;49638;47.526;10.028;2023-06-05T13:27:56;91609.03;;;19.52;58.78
63493;BME280;49638;47.526;10.028;2023-06-05T13:30:57;91612.34;;;19.21;59.07
63493;BME280;49638;47.526;10.028;2023-06-05T13:33:57;91608.25;;;18.82;59.99
63493;BME280;49638;47.526;10.028;2023-06-05T13:36:58;91623.34;;;18.59;61.20
63493;BME280;49638;47.526;10.028;2023-06-05T13:39:58;91614.06;;;18.38;62.62
63493;BME280;49638;47.526;10.028;2023-06-05T13:42:59;91626.88;;;18.22;63.94
63493;BME280;49638;47.526;10.028;2023-06-05T13:46:00;91621.75;;;18.07;65.10
63493;BME280;49638;47.526;10.028;2023-06-05T13:49:00;91616.94;;;17.90;66.12
63493;BME280;49638;47.526;10.028;2023-06-05T13:52:01;91626.41;;;17.82;67.28
63493;BME280;49638;47.526;10.028;2023-06-05T13:55:01;91615.59;;;17.68;68.26
63493;BME280;49638;47.526;10.028;2023-06-05T13:58:01;91609.59;;;17.58;69.06
63493;BME280;49638;47.526;10.028;2023-06-05T14:01:02;91608.50;;;17.59;70.06
63493;BME280;49638;47.526;10.028;2023-06-05T14:04:03;91605.28;;;17.62;71.33
63493;BME280;49638;47.526;10.028;2023-06-05T14:07:03;91597.19;;;17.67;71.14
63493;BME280;49638;47.526;10.028;2023-06-05T14:10:04;91601.63;;;17.77;71.74
63493;BME280;49638;47.526;10.028;2023-06-05T14:13:05;91602.28;;;17.87;72.13
63493;BME280;49638;47.526;10.028;2023-06-05T14:16:05;91601.63;;;17.95;72.94
63493;BME280;49638;47.526;10.028;2023-06-05T14:19:07;91590.34;;;17.99;73.07
63493;BME280;49638;47.526;10.028;2023-06-05T14:22:08;91601.97;;;18.08;73.75
63493;BME280;49638;47.526;10.028;2023-06-05T14:25:09;91584.53;;;18.10;73.72
63493;BME280;49638;47.526;10.028;2023-06-05T14:28:10;91597.47;;;18.22;74.19
63493;BME280;49638;47.526;10.028;2023-06-05T14:31:10;91601.06;;;18.31;74.10
63493;BME280;49638;47.526;10.028;2023-06-05T14:34:11;91598.22;;;18.41;74.22
63493;BME280;49638;47.526;10.028;2023-06-05T14:37:11;91601.72;;;18.56;72.83
63493;BME280;49638;47.526;10.028;2023-06-05T14:40:12;91584.38;;;18.67;72.06
63493;BME280;49638;47.526;10.028;2023-06-05T14:43:12;91579.97;;;18.76;72.02
63493;BME280;49638;47.526;10.028;2023-06-05T14:46:12;91585.84;;;18.92;71.62
63493;BME280;49638;47.526;10.028;2023-06-05T14:49:14;91587.72;;;19.05;71.18
63493;BME280;49638;47.526;10.028;2023-06-05T14:52:15;91584.84;;;19.15;70.07
63493;BME280;49638;47.526;10.028;2023-06-05T14:55:15;91582.25;;;19.24;69.58
63493;BME280;49638;47.526;10.028;2023-06-05T14:58:16;91578.09;;;19.32;69.00
63493;BME280;49638;47.526;10.028;2023-06-05T15:01:16;91580.06;;;19.40;68.30
63493;BME280;49638;47.526;10.028;2023-06-05T15:04:16;91565.25;;;19.43;67.82
63493;BME280;49638;47.526;10.028;2023-06-05T15:07:20;91566.16;;;19.52;66.27
63493;BME280;49638;47.526;10.028;2023-06-05T15:10:20;91576.88;;;19.66;66.17
63493;BME280;49638;47.526;10.028;2023-06-05T15:13:21;91582.75;;;19.68;65.26
63493;BME280;49638;47.526;10.028;2023-06-05T15:16:22;91581.34;;;19.70;64.62
63493;BME280;49638;47.526;10.028;2023-06-05T15:19:23;91581.22;;;19.75;63.97
63493;BME280;49638;47.526;10.028;2023-06-05T15:22:23;91581.13;;;19.80;63.76
63493;BME280;49638;47.526;10.028;2023-06-05T15:25:24;91579.88;;;19.87;63.37
63493;BME280;49638;47.526;10.028;2023-06-05T15:28:25;91581.69;;;19.91;62.85
63493;BME280;49638;47.526;10.028;2023-06-05T15:31:25;91574.09;;;19.93;62.32
63493;BME280;49638;47.526;10.028;2023-06-05T15:34:25;91571.13;;;19.95;62.00
63493;BME280;49638;47.526;10.028;2023-06-05T15:37:26;91565.59;;;19.91;61.81
63493;BME280;49638;47.526;10.028;2023-06-05T15:40:26;91561.00;;;19.92;61.39
63493;BME280;49638;47.526;10.028;2023-06-05T15:43:27;91562.97;;;20.00;61.19
63493;BME280;49638;47.526;10.028;2023-06-05T15:46:27;91562.97;;;20.00;60.80
63493;BME280;49638;47.526;10.028;2023-06-05T15:49:28;91565.16;;;19.98;60.36
63493;BME280;49638;47.526;10.028;2023-06-05T15:52:28;91555.50;;;19.97;60.12
63493;BME280;49638;47.526;10.028;2023-06-05T15:55:30;91564.56;;;20.01;59.80
63493;BME280;49638;47.526;10.028;2023-06-05T15:58:32;91559.31;;;19.96;59.57
63493;BME280;49638;47.526;10.028;2023-06-05T16:01:32;91549.59;;;19.86;59.68
63493;BME280;49638;47.526;10.028;2023-06-05T16:04:32;91558.06;;;19.79;59.54
63493;BME280;49638;47.526;10.028;2023-06-05T16:07:34;91555.13;;;19.67;59.62
63493;BME280;49638;47.526;10.028;2023-06-05T16:10:34;91559.59;;;19.58;59.20
63493;BME280;49638;47.526;10.028;2023-06-05T16:13:36;91552.56;;;19.48;57.60